createdAt,value
2023-11-07T21:21:30.520Z,99216.91
2023-11-07T21:24:00.962Z,99208.31
2023-11-07T21:26:28.961Z,99227.94
2023-11-07T21:28:59.263Z,99231.66
2023-11-07T21:31:26.873Z,99225.72
2023-11-07T21:33:54.868Z,99217.94
2023-11-07T21:36:22.762Z,99226.66
2023-11-07T21:38:50.333Z,99228.56
2023-11-07T21:41:19.643Z,99227.06
2023-11-07T21:43:47.331Z,99242.84
2023-11-07T21:46:15.358Z,99239.16
2023-11-07T21:48:44.994Z,99239.84
2023-11-07T21:51:16.194Z,99246.88
2023-11-07T21:53:43.886Z,99235.59
2023-11-07T21:56:13.910Z,99239.69
2023-11-07T21:58:43.116Z,99230.97
2023-11-07T22:01:11.139Z,99252.06
2023-11-07T22:03:38.807Z,99252.09
2023-11-07T22:06:07.081Z,99254.81
2023-11-07T22:08:34.739Z,99246.34
2023-11-07T22:11:02.304Z,99253.63
2023-11-07T22:13:29.864Z,99261.22
2023-11-07T22:15:57.423Z,99254.78
2023-11-07T22:18:25.286Z,99255.44
2023-11-07T22:20:52.832Z,99255.63
2023-11-07T22:23:20.283Z,99257.25
2023-11-07T22:25:47.967Z,99260.16
2023-11-07T22:28:15.435Z,99243.56
2023-11-07T22:30:42.954Z,99255.13
2023-11-07T22:33:10.609Z,99249.00
2023-11-07T22:35:38.134Z,99251.72
2023-11-07T22:38:05.573Z,99250.88
2023-11-07T22:40:33.059Z,99254.72
2023-11-07T22:43:01.367Z,99255.00
2023-11-07T22:45:29.056Z,99263.19
2023-11-07T22:47:56.647Z,99255.53
2023-11-07T22:50:24.925Z,99246.75
2023-11-07T22:52:52.365Z,99251.25
2023-11-07T22:55:19.730Z,99255.28
2023-11-07T22:57:48.444Z,99259.31
2023-11-07T23:00:29.115Z,99262.09
2023-11-07T23:02:59.908Z,99246.06
2023-11-07T23:05:27.508Z,99253.69
2023-11-07T23:07:55.846Z,99264.88
2023-11-07T23:10:23.631Z,99265.66
2023-11-07T23:12:51.132Z,99263.88
2023-11-07T23:15:18.619Z,99267.75
2023-11-07T23:17:46.427Z,99272.41
2023-11-07T23:20:14.014Z,99267.69
2023-11-07T23:22:41.641Z,99269.13
2023-11-07T23:25:13.122Z,99264.75
2023-11-07T23:27:40.683Z,99268.47
2023-11-07T23:30:08.973Z,99267.88
2023-11-07T23:32:37.294Z,99268.38
2023-11-07T23:35:05.981Z,99267.38
2023-11-07T23:37:34.548Z,99260.25
2023-11-07T23:40:07.680Z,99266.41
2023-11-07T23:42:35.069Z,99257.00
2023-11-07T23:45:03.417Z,99263.38
2023-11-07T23:47:31.814Z,99260.13
2023-11-07T23:49:59.306Z,99264.50
2023-11-07T23:52:26.758Z,99268.56
2023-11-07T23:54:54.127Z,99259.97
2023-11-07T23:57:21.637Z,99270.16
2023-11-07T23:59:49.352Z,99265.78
